EST,Max TemperatureF,Mean TemperatureF,Min TemperatureF,Max Dew PointF,MeanDew PointF,Min DewpointF,Max Humidity, Mean Humidity, Min Humidity, Max Sea Level PressureIn, Mean Sea Level PressureIn, Min Sea Level PressureIn, Max VisibilityMiles, Mean VisibilityMiles, Min VisibilityMiles, Max Wind SpeedMPH, Mean Wind SpeedMPH, Max Gust SpeedMPH,PrecipitationIn, CloudCover, Events, WindDirDegrees
2013-2-1,15,10,6,9,5,1,85,73,62,30.28,30.20,29.92,10,10,3,21,15,25,0.00,5,,246
2013-2-2,26,19,12,25,17,7,100,86,73,30.23,30.03,29.92,10,6,1,16,11,21,0.00,3,,223
2013-2-3,21,16,12,19,15,9,100,86,68,30.03,29.92,29.86,10,8,1,16,6,23,0.00,6,,273
2013-2-4,30,21,12,30,20,10,100,90,64,30.03,29.88,29.78,10,7,1,13,7,,0.00,3,,177
2013-2-5,32,28,23,32,25,19,100,90,64,29.94,29.86,29.80,10,6,1,12,7,16,0.00,5,,261
2013-2-6,32,29,26,30,22,14,93,75,55,30.24,30.16,29.95,10,9,5,13,7,21,0.00,3,,337
2013-2-7,44,35,26,32,28,21,86,75,61,30.19,30.01,29.76,10,10,8,16,9,,0.00,0,,137
2013-2-8,42,33,23,39,29,19,100,87,70,30.28,30.00,29.73,10,8,2,20,8,31,0.13,7,,254
2013-2-9,33,25,17,25,21,18,100,79,60,30.39,30.31,30.21,10,10,9,13,2,,0.00,0,,144
2013-2-10,44,37,30,43,28,21,100,67,53,30.21,29.99,29.74,10,10,4,23,14,32,0.00,3,,146
2013-2-11,46,39,32,46,34,27,100,83,70,29.95,29.80,29.67,10,10,3,31,17,39,0.00,7,,230
2013-2-12,41,34,28,30,27,23,100,78,61,30.07,29.98,29.90,10,10,8,18,11,24,0.00,4,,256
2013-2-13,32,29,26,28,27,27,100,90,80,29.89,29.79,29.73,10,8,5,13,5,,0.00,5,,313
2013-2-14,44,37,30,36,32,28,100,90,66,29.92,29.82,29.74,10,8,2,22,12,26,0.00,6,,211
2013-2-15,33,28,23,32,27,18,100,89,69,30.09,30.01,29.91,10,8,1,16,7,22,0.00,4,,277
2013-2-16,26,19,12,23,16,3,100,83,62,30.08,30.01,29.95,10,9,1,18,5,24,0.00,3,,265
2013-2-17,24,17,10,12,11,7,93,74,54,30.17,30.12,30.03,10,10,5,9,5,,0.00,5,,271
2013-2-18,51,35,19,37,24,12,81,63,47,30.16,29.94,29.67,10,10,5,31,15,39,0.01,1,,156
2013-2-19,42,30,19,39,25,14,100,85,69,30.01,29.77,29.55,10,6,0,28,21,39,0.05,7,,243
2013-2-20,21,18,14,19,13,9,93,80,68,30.23,30.15,30.02,10,8,3,18,11,24,0.00,6,,273
2013-2-21,26,24,21,19,18,14,93,80,74,30.30,30.23,30.11,10,10,6,14,7,22,0.00,7,,28
2013-2-22,35,30,24,36,29,19,100,91,74,30.12,29.92,29.85,10,7,0,20,12,23,0.02,7,,170
2013-2-23,35,32,26,32,28,23,100,86,70,29.94,29.90,29.87,10,10,7,13,8,16,0.00,5,,261
2013-2-24,33,30,26,27,23,19,100,77,64,30.12,30.02,29.89,10,10,10,13,7,22,0.00,6,,289
2013-2-25,42,32,21,28,25,19,100,80,53,30.16,30.09,29.95,10,10,8,13,3,,0.00,0,,82
2013-2-26,41,36,32,41,34,25,100,91,70,29.94,29.59,29.39,10,8,2,21,12,29,0.53,6,,100
2013-2-27,41,36,32,41,35,32,100,99,87,29.62,29.55,29.43,10,7,1,22,15,31,0.07,7,,219
2013-2-28,33,32,32,34,33,32,100,100,100,29.89,29.71,29.58,10,5,1,15,10,23,0.00,7,,283